PWSweather.com
Personal Weather Stations
Station Observations
ANTHEMNP
Anthem North Parkside, Anthem, AZ 85086

Anthem North ParksideAnthem, AZ 85086

Lat: 33.876464, Lon: -112.13861199999997

Elevation: 1930

Station Type: Davis Vantage Vue with Pro 2 console

http://www.azjerry.com/ANPW/wxindex.php

High Low Average
Temperature 96.9°F36.1°C 74.4°F23.6°C 85.9°F29.9°C
Dew Point 58.0°F14.4°C 44.0°F6.7°C 51.7°F10.9°C
Winds 5.8 mph 9.3 kmh Calm Calm 2.0 mph SE3.2 kmh SE
Wind Gusts 15.0 mph24.1 kmh -- 6.0 mph9.7 kmh
Humidity 51% 17% 33%
Pressure 29.90 in1012.5 mb 29.78 in1008.5 mb -
Precipitation 0.00 in0.0 mm - -
Hour Temp Dew Point Humidity Winds Wind Gusts Pressure Precip Precip Rate Daily Precip Total
12:00 AM 80.0°F26.7°C 57.0°F13.9°C 45% 0.4 mph NNE0.6 kmh NNE 3.0 mph4.8 kmh 29.84 in1010.5 mb 0.00 in0.0 mm 0.00 in0.0 mm 0.00 in0.0 mm
12:10 AM 80.1°F26.7°C 57.0°F13.9°C 45% 0.2 mph NE0.3 kmh NE 2.0 mph3.2 kmh 29.84 in1010.5 mb 0.00 in0.0 mm 0.00 in0.0 mm 0.00 in0.0 mm
12:20 AM 80.5°F26.9°C 57.0°F13.9°C 44% 0.3 mph NE0.5 kmh NE 2.0 mph3.2 kmh 29.84 in1010.5 mb 0.00 in0.0 mm 0.00 in0.0 mm 0.00 in0.0 mm
12:30 AM 80.1°F26.7°C 57.0°F13.9°C 45% Calm Calm 1.0 mph1.6 kmh 29.84 in1010.5 mb 0.00 in0.0 mm 0.00 in0.0 mm 0.00 in0.0 mm
12:40 AM 79.9°F26.6°C 57.0°F13.9°C 45% Calm Calm 1.0 mph1.6 kmh 29.84 in1010.5 mb 0.00 in0.0 mm 0.00 in0.0 mm 0.00 in0.0 mm
12:50 AM 79.1°F26.2°C 57.0°F13.9°C 46% Calm Calm 1.0 mph1.6 kmh 29.84 in1010.5 mb 0.00 in0.0 mm 0.00 in0.0 mm 0.00 in0.0 mm
01:00 AM 79.0°F26.1°C 56.0°F13.3°C 46% Calm Calm -- 29.85 in1010.8 mb 0.00 in0.0 mm 0.00 in0.0 mm 0.00 in0.0 mm
01:10 AM 78.1°F25.6°C 56.0°F13.3°C 47% Calm Calm 1.0 mph1.6 kmh 29.85 in1010.8 mb 0.00 in0.0 mm 0.00 in0.0 mm 0.00 in0.0 mm
01:20 AM 78.4°F25.8°C 56.0°F13.3°C 47% 0.3 mph NNE0.5 kmh NNE 2.0 mph3.2 kmh 29.85 in1010.8 mb 0.00 in0.0 mm 0.00 in0.0 mm 0.00 in0.0 mm
01:30 AM 78.5°F25.8°C 57.0°F13.9°C 47% Calm Calm 1.0 mph1.6 kmh 29.85 in1010.8 mb 0.00 in0.0 mm 0.00 in0.0 mm 0.00 in0.0 mm
01:40 AM 78.0°F25.6°C 56.0°F13.3°C 47% 0.2 mph NNE0.3 kmh NNE 1.0 mph1.6 kmh 29.85 in1010.8 mb 0.00 in0.0 mm 0.00 in0.0 mm 0.00 in0.0 mm
01:50 AM 78.3°F25.7°C 56.0°F13.3°C 47% 1.3 mph NE2.1 kmh NE 3.0 mph4.8 kmh 29.85 in1010.8 mb 0.00 in0.0 mm 0.00 in0.0 mm 0.00 in0.0 mm
02:00 AM 78.1°F25.6°C 56.0°F13.3°C 47% 2.3 mph NNE3.7 kmh NNE 4.0 mph6.4 kmh 29.85 in1010.8 mb 0.00 in0.0 mm 0.00 in0.0 mm 0.00 in0.0 mm
02:10 AM 77.9°F25.5°C 56.0°F13.3°C 47% 2.9 mph N4.7 kmh N 5.0 mph8.0 kmh 29.85 in1010.8 mb 0.00 in0.0 mm 0.00 in0.0 mm 0.00 in0.0 mm
02:20 AM 77.7°F25.4°C 56.0°F13.3°C 47% 1.9 mph NE3.1 kmh NE 3.0 mph4.8 kmh 29.85 in1010.8 mb 0.00 in0.0 mm 0.00 in0.0 mm 0.00 in0.0 mm
02:30 AM 77.5°F25.3°C 56.0°F13.3°C 47% 2.2 mph N3.5 kmh N 4.0 mph6.4 kmh 29.85 in1010.8 mb 0.00 in0.0 mm 0.00 in0.0 mm 0.00 in0.0 mm
02:40 AM 77.5°F25.3°C 56.0°F13.3°C 48% 2.6 mph N4.2 kmh N 4.0 mph6.4 kmh 29.84 in1010.5 mb 0.00 in0.0 mm 0.00 in0.0 mm 0.00 in0.0 mm
02:50 AM 77.4°F25.2°C 56.0°F13.3°C 48% 2.9 mph NNE4.7 kmh NNE 6.0 mph9.7 kmh 29.84 in1010.5 mb 0.00 in0.0 mm 0.00 in0.0 mm 0.00 in0.0 mm
03:00 AM 77.4°F25.2°C 56.0°F13.3°C 48% 2.6 mph N4.2 kmh N 4.0 mph6.4 kmh 29.84 in1010.5 mb 0.00 in0.0 mm 0.00 in0.0 mm 0.00 in0.0 mm
03:10 AM 77.5°F25.3°C 56.0°F13.3°C 48% 3.8 mph N6.1 kmh N 7.0 mph11.3 kmh 29.84 in1010.5 mb 0.00 in0.0 mm 0.00 in0.0 mm 0.00 in0.0 mm
03:20 AM 77.1°F25.1°C 56.0°F13.3°C 49% 3.1 mph N5.0 kmh N 5.0 mph8.0 kmh 29.85 in1010.8 mb 0.00 in0.0 mm 0.00 in0.0 mm 0.00 in0.0 mm
03:30 AM 77.3°F25.2°C 56.0°F13.3°C 48% 3.5 mph NNE5.6 kmh NNE 6.0 mph9.7 kmh 29.85 in1010.8 mb 0.00 in0.0 mm 0.00 in0.0 mm 0.00 in0.0 mm
03:40 AM 77.0°F25.0°C 56.0°F13.3°C 49% 3.1 mph NE5.0 kmh NE 6.0 mph9.7 kmh 29.85 in1010.8 mb 0.00 in0.0 mm 0.00 in0.0 mm 0.00 in0.0 mm
03:50 AM 76.9°F24.9°C 56.0°F13.3°C 49% 2.9 mph NNE4.7 kmh NNE 5.0 mph8.0 kmh 29.85 in1010.8 mb 0.00 in0.0 mm 0.00 in0.0 mm 0.00 in0.0 mm
04:00 AM 77.0°F25.0°C 56.0°F13.3°C 49% 3.0 mph N4.8 kmh N 6.0 mph9.7 kmh 29.85 in1010.8 mb 0.00 in0.0 mm 0.00 in0.0 mm 0.00 in0.0 mm
04:10 AM 76.4°F24.7°C 56.0°F13.3°C 50% 2.9 mph N4.7 kmh N 5.0 mph8.0 kmh 29.84 in1010.5 mb 0.00 in0.0 mm 0.00 in0.0 mm 0.00 in0.0 mm
04:20 AM 76.3°F24.6°C 56.0°F13.3°C 50% 3.5 mph NNE5.6 kmh NNE 6.0 mph9.7 kmh 29.84 in1010.5 mb 0.00 in0.0 mm 0.00 in0.0 mm 0.00 in0.0 mm
04:30 AM 75.9°F24.4°C 56.0°F13.3°C 50% 3.5 mph N5.6 kmh N 6.0 mph9.7 kmh 29.84 in1010.5 mb 0.00 in0.0 mm 0.00 in0.0 mm 0.00 in0.0 mm
04:40 AM 75.7°F24.3°C 56.0°F13.3°C 51% 3.3 mph NW5.3 kmh NW 6.0 mph9.7 kmh 29.85 in1010.8 mb 0.00 in0.0 mm 0.00 in0.0 mm 0.00 in0.0 mm
04:50 AM 75.7°F24.3°C 56.0°F13.3°C 51% 2.9 mph NNW4.7 kmh NNW 6.0 mph9.7 kmh 29.85 in1010.8 mb 0.00 in0.0 mm 0.00 in0.0 mm 0.00 in0.0 mm
05:00 AM 75.5°F24.2°C 56.0°F13.3°C 51% 2.8 mph NNE4.5 kmh NNE 6.0 mph9.7 kmh 29.85 in1010.8 mb 0.00 in0.0 mm 0.00 in0.0 mm 0.00 in0.0 mm
05:10 AM 75.4°F24.1°C 56.0°F13.3°C 51% 3.1 mph NE5.0 kmh NE 7.0 mph11.3 kmh 29.85 in1010.8 mb 0.00 in0.0 mm 0.00 in0.0 mm 0.00 in0.0 mm
05:20 AM 75.2°F24.0°C 56.0°F13.3°C 51% 3.4 mph N5.5 kmh N 6.0 mph9.7 kmh 29.85 in1010.8 mb 0.00 in0.0 mm 0.00 in0.0 mm 0.00 in0.0 mm
05:30 AM 75.2°F24.0°C 56.0°F13.3°C 51% 2.6 mph N4.2 kmh N 6.0 mph9.7 kmh 29.86 in1011.2 mb 0.00 in0.0 mm 0.00 in0.0 mm 0.00 in0.0 mm
05:40 AM 75.2°F24.0°C 56.0°F13.3°C 51% 3.1 mph N5.0 kmh N 5.0 mph8.0 kmh 29.85 in1010.8 mb 0.00 in0.0 mm 0.00 in0.0 mm 0.00 in0.0 mm
05:50 AM 75.0°F23.9°C 56.0°F13.3°C 51% 3.4 mph NNE5.5 kmh NNE 6.0 mph9.7 kmh 29.85 in1010.8 mb 0.00 in0.0 mm 0.00 in0.0 mm 0.00 in0.0 mm
06:00 AM 75.0°F23.9°C 56.0°F13.3°C 51% 2.7 mph N4.3 kmh N 4.0 mph6.4 kmh 29.86 in1011.2 mb 0.00 in0.0 mm 0.00 in0.0 mm 0.00 in0.0 mm
06:10 AM 74.7°F23.7°C 55.0°F12.8°C 51% 3.2 mph N5.1 kmh N 5.0 mph8.0 kmh 29.86 in1011.2 mb 0.00 in0.0 mm 0.00 in0.0 mm 0.00 in0.0 mm
06:20 AM 74.4°F23.6°C 55.0°F12.8°C 51% 3.3 mph NNE5.3 kmh NNE 6.0 mph9.7 kmh 29.86 in1011.2 mb 0.00 in0.0 mm 0.00 in0.0 mm 0.00 in0.0 mm
06:30 AM 74.5°F23.6°C 55.0°F12.8°C 51% 3.1 mph NNE5.0 kmh NNE 5.0 mph8.0 kmh 29.87 in1011.5 mb 0.00 in0.0 mm 0.00 in0.0 mm 0.00 in0.0 mm
06:40 AM 74.4°F23.6°C 55.0°F12.8°C 51% 2.3 mph N3.7 kmh N 5.0 mph8.0 kmh 29.87 in1011.5 mb 0.00 in0.0 mm 0.00 in0.0 mm 0.00 in0.0 mm
06:50 AM 74.5°F23.6°C 55.0°F12.8°C 50% 2.8 mph N4.5 kmh N 5.0 mph8.0 kmh 29.87 in1011.5 mb 0.00 in0.0 mm 0.00 in0.0 mm 0.00 in0.0 mm
07:00 AM 74.9°F23.8°C 55.0°F12.8°C 50% 2.0 mph N3.2 kmh N 5.0 mph8.0 kmh 29.87 in1011.5 mb 0.00 in0.0 mm 0.00 in0.0 mm 0.00 in0.0 mm
07:10 AM 75.4°F24.1°C 55.0°F12.8°C 50% 0.9 mph N1.4 kmh N 2.0 mph3.2 kmh 29.88 in1011.9 mb 0.00 in0.0 mm 0.00 in0.0 mm 0.00 in0.0 mm
07:20 AM 76.2°F24.6°C 56.0°F13.3°C 49% 1.2 mph NNE1.9 kmh NNE 3.0 mph4.8 kmh 29.88 in1011.9 mb 0.00 in0.0 mm 0.00 in0.0 mm 0.00 in0.0 mm
07:30 AM 76.9°F24.9°C 55.0°F12.8°C 47% 1.2 mph N1.9 kmh N 4.0 mph6.4 kmh 29.88 in1011.9 mb 0.00 in0.0 mm 0.00 in0.0 mm 0.00 in0.0 mm
07:40 AM 77.8°F25.4°C 55.0°F12.8°C 46% 2.1 mph N3.4 kmh N 4.0 mph6.4 kmh 29.89 in1012.2 mb 0.00 in0.0 mm 0.00 in0.0 mm 0.00 in0.0 mm
07:50 AM 79.3°F26.3°C 55.0°F12.8°C 44% 1.6 mph NNE2.6 kmh NNE 3.0 mph4.8 kmh 29.89 in1012.2 mb 0.00 in0.0 mm 0.00 in0.0 mm 0.00 in0.0 mm
08:00 AM 81.0°F27.2°C 56.0°F13.3°C 43% 0.9 mph N1.4 kmh N 2.0 mph3.2 kmh 29.89 in1012.2 mb 0.00 in0.0 mm 0.00 in0.0 mm 0.00 in0.0 mm
08:10 AM 82.3°F27.9°C 56.0°F13.3°C 41% 0.6 mph N1.0 kmh N 3.0 mph4.8 kmh 29.89 in1012.2 mb 0.00 in0.0 mm 0.00 in0.0 mm 0.00 in0.0 mm
08:20 AM 84.9°F29.4°C 57.0°F13.9°C 38% 0.1 mph N0.2 kmh N 1.0 mph1.6 kmh 29.89 in1012.2 mb 0.00 in0.0 mm 0.00 in0.0 mm 0.00 in0.0 mm
08:30 AM 88.1°F31.2°C 57.0°F13.9°C 35% Calm Calm 1.0 mph1.6 kmh 29.89 in1012.2 mb 0.00 in0.0 mm 0.00 in0.0 mm 0.00 in0.0 mm
08:40 AM 89.3°F31.8°C 57.0°F13.9°C 34% 0.3 mph SSE0.5 kmh SSE 1.0 mph1.6 kmh 29.89 in1012.2 mb 0.00 in0.0 mm 0.00 in0.0 mm 0.00 in0.0 mm
08:50 AM 89.4°F31.9°C 57.0°F13.9°C 33% 0.6 mph SE1.0 kmh SE 4.0 mph6.4 kmh 29.89 in1012.2 mb 0.00 in0.0 mm 0.00 in0.0 mm 0.00 in0.0 mm
09:00 AM 88.0°F31.1°C 57.0°F13.9°C 35% 1.8 mph SE2.9 kmh SE 5.0 mph8.0 kmh 29.89 in1012.2 mb 0.00 in0.0 mm 0.00 in0.0 mm 0.00 in0.0 mm
09:10 AM 88.4°F31.3°C 57.0°F13.9°C 34% 1.6 mph SSW2.6 kmh SSW 5.0 mph8.0 kmh 29.89 in1012.2 mb 0.00 in0.0 mm 0.00 in0.0 mm 0.00 in0.0 mm
09:20 AM 88.9°F31.6°C 58.0°F14.4°C 35% 1.5 mph NW2.4 kmh NW 5.0 mph8.0 kmh 29.90 in1012.5 mb 0.00 in0.0 mm 0.00 in0.0 mm 0.00 in0.0 mm
09:30 AM 89.0°F31.7°C 57.0°F13.9°C 34% 1.9 mph SE3.1 kmh SE 5.0 mph8.0 kmh 29.90 in1012.5 mb 0.00 in0.0 mm 0.00 in0.0 mm 0.00 in0.0 mm
09:40 AM 88.8°F31.6°C 57.0°F13.9°C 34% 2.2 mph SE3.5 kmh SE 6.0 mph9.7 kmh 29.90 in1012.5 mb 0.00 in0.0 mm 0.00 in0.0 mm 0.00 in0.0 mm
09:50 AM 89.5°F31.9°C 57.0°F13.9°C 33% 1.8 mph SW2.9 kmh SW 7.0 mph11.3 kmh 29.90 in1012.5 mb 0.00 in0.0 mm 0.00 in0.0 mm 0.00 in0.0 mm
10:00 AM 89.5°F31.9°C 57.0°F13.9°C 33% 3.2 mph SSW5.1 kmh SSW 7.0 mph11.3 kmh 29.90 in1012.5 mb 0.00 in0.0 mm 0.00 in0.0 mm 0.00 in0.0 mm
10:10 AM 90.4°F32.4°C 57.0°F13.9°C 32% 2.7 mph ESE4.3 kmh ESE 9.0 mph14.5 kmh 29.90 in1012.5 mb 0.00 in0.0 mm 0.00 in0.0 mm 0.00 in0.0 mm
10:20 AM 90.6°F32.6°C 56.0°F13.3°C 31% 2.8 mph SW4.5 kmh SW 7.0 mph11.3 kmh 29.90 in1012.5 mb 0.00 in0.0 mm 0.00 in0.0 mm 0.00 in0.0 mm
10:30 AM 91.0°F32.8°C 56.0°F13.3°C 30% 3.1 mph SE5.0 kmh SE 6.0 mph9.7 kmh 29.90 in1012.5 mb 0.00 in0.0 mm 0.00 in0.0 mm 0.00 in0.0 mm
10:40 AM 91.6°F33.1°C 54.0°F12.2°C 28% 2.5 mph SSE4.0 kmh SSE 7.0 mph11.3 kmh 29.90 in1012.5 mb 0.00 in0.0 mm 0.00 in0.0 mm 0.00 in0.0 mm
10:50 AM 91.9°F33.3°C 52.0°F11.1°C 26% 3.6 mph S5.8 kmh S 9.0 mph14.5 kmh 29.90 in1012.5 mb 0.00 in0.0 mm 0.00 in0.0 mm 0.00 in0.0 mm
11:00 AM 91.9°F33.3°C 54.0°F12.2°C 28% 2.9 mph SSW4.7 kmh SSW 7.0 mph11.3 kmh 29.90 in1012.5 mb 0.00 in0.0 mm 0.00 in0.0 mm 0.00 in0.0 mm
11:10 AM 92.5°F33.6°C 52.0°F11.1°C 25% 3.4 mph ENE5.5 kmh ENE 7.0 mph11.3 kmh 29.89 in1012.2 mb 0.00 in0.0 mm 0.00 in0.0 mm 0.00 in0.0 mm
11:20 AM 92.8°F33.8°C 53.0°F11.7°C 26% 3.4 mph SW5.5 kmh SW 8.0 mph12.9 kmh 29.89 in1012.2 mb 0.00 in0.0 mm 0.00 in0.0 mm 0.00 in0.0 mm
11:30 AM 94.0°F34.4°C 53.0°F11.7°C 25% 1.8 mph SE2.9 kmh SE 6.0 mph9.7 kmh 29.89 in1012.2 mb 0.00 in0.0 mm 0.00 in0.0 mm 0.00 in0.0 mm
11:40 AM 93.2°F34.0°C 55.0°F12.8°C 27% 4.3 mph SE6.9 kmh SE 9.0 mph14.5 kmh 29.88 in1011.9 mb 0.00 in0.0 mm 0.00 in0.0 mm 0.00 in0.0 mm
11:50 AM 93.7°F34.3°C 55.0°F12.8°C 27% 2.8 mph SSW4.5 kmh SSW 7.0 mph11.3 kmh 29.88 in1011.9 mb 0.00 in0.0 mm 0.00 in0.0 mm 0.00 in0.0 mm
12:00 PM 93.7°F34.3°C 54.0°F12.2°C 26% 4.1 mph S6.6 kmh S 9.0 mph14.5 kmh 29.88 in1011.9 mb 0.00 in0.0 mm 0.00 in0.0 mm 0.00 in0.0 mm
12:10 PM 94.1°F34.5°C 52.0°F11.1°C 24% 3.9 mph SSW6.3 kmh SSW 10.0 mph16.1 kmh 29.87 in1011.5 mb 0.00 in0.0 mm 0.00 in0.0 mm 0.00 in0.0 mm
12:20 PM 94.1°F34.5°C 53.0°F11.7°C 25% 4.5 mph SW7.2 kmh SW 9.0 mph14.5 kmh 29.87 in1011.5 mb 0.00 in0.0 mm 0.00 in0.0 mm 0.00 in0.0 mm
12:30 PM 94.5°F34.7°C 54.0°F12.2°C 25% 3.0 mph SE4.8 kmh SE 8.0 mph12.9 kmh 29.87 in1011.5 mb 0.00 in0.0 mm 0.00 in0.0 mm 0.00 in0.0 mm
12:40 PM 94.6°F34.8°C 54.0°F12.2°C 25% 3.9 mph SW6.3 kmh SW 11.0 mph17.7 kmh 29.86 in1011.2 mb 0.00 in0.0 mm 0.00 in0.0 mm 0.00 in0.0 mm
12:50 PM 94.8°F34.9°C 53.0°F11.7°C 24% 4.4 mph SE7.1 kmh SE 11.0 mph17.7 kmh 29.86 in1011.2 mb 0.00 in0.0 mm 0.00 in0.0 mm 0.00 in0.0 mm
01:00 PM 94.9°F34.9°C 53.0°F11.7°C 24% 4.0 mph SSE6.4 kmh SSE 11.0 mph17.7 kmh 29.86 in1011.2 mb 0.00 in0.0 mm 0.00 in0.0 mm 0.00 in0.0 mm
01:10 PM 95.1°F35.1°C 52.0°F11.1°C 23% 4.9 mph SE7.9 kmh SE 11.0 mph17.7 kmh 29.85 in1010.8 mb 0.00 in0.0 mm 0.00 in0.0 mm 0.00 in0.0 mm
01:20 PM 95.9°F35.5°C 53.0°F11.7°C 23% 3.7 mph WSW6.0 kmh WSW 10.0 mph16.1 kmh 29.85 in1010.8 mb 0.00 in0.0 mm 0.00 in0.0 mm 0.00 in0.0 mm
01:30 PM 95.8°F35.4°C 51.0°F10.6°C 22% 4.4 mph SW7.1 kmh SW 11.0 mph17.7 kmh 29.84 in1010.5 mb 0.00 in0.0 mm 0.00 in0.0 mm 0.00 in0.0 mm
01:40 PM 96.2°F35.7°C 52.0°F11.1°C 22% 3.2 mph W5.1 kmh W 8.0 mph12.9 kmh 29.84 in1010.5 mb 0.00 in0.0 mm 0.00 in0.0 mm 0.00 in0.0 mm
01:50 PM 96.4°F35.8°C 51.0°F10.6°C 21% 4.5 mph S7.2 kmh S 13.0 mph20.9 kmh 29.84 in1010.5 mb 0.00 in0.0 mm 0.00 in0.0 mm 0.00 in0.0 mm
02:00 PM 96.2°F35.7°C 50.0°F10.0°C 21% 4.2 mph SW6.8 kmh SW 11.0 mph17.7 kmh 29.84 in1010.5 mb 0.00 in0.0 mm 0.00 in0.0 mm 0.00 in0.0 mm
02:10 PM 96.2°F35.7°C 50.0°F10.0°C 21% 4.0 mph SW6.4 kmh SW 10.0 mph16.1 kmh 29.83 in1010.2 mb 0.00 in0.0 mm 0.00 in0.0 mm 0.00 in0.0 mm
02:20 PM 96.2°F35.7°C 49.0°F9.4°C 20% 5.1 mph SSE8.2 kmh SSE 13.0 mph20.9 kmh 29.83 in1010.2 mb 0.00 in0.0 mm 0.00 in0.0 mm 0.00 in0.0 mm
02:30 PM 95.9°F35.5°C 49.0°F9.4°C 20% 2.8 mph ESE4.5 kmh ESE 12.0 mph19.3 kmh 29.82 in1009.8 mb 0.00 in0.0 mm 0.00 in0.0 mm 0.00 in0.0 mm
02:40 PM 96.3°F35.7°C 49.0°F9.4°C 20% 3.6 mph WSW5.8 kmh WSW 11.0 mph17.7 kmh 29.82 in1009.8 mb 0.00 in0.0 mm 0.00 in0.0 mm 0.00 in0.0 mm
02:50 PM 96.5°F35.8°C 49.0°F9.4°C 20% 5.3 mph ESE8.5 kmh ESE 11.0 mph17.7 kmh 29.81 in1009.5 mb 0.00 in0.0 mm 0.00 in0.0 mm 0.00 in0.0 mm
03:00 PM 96.5°F35.8°C 49.0°F9.4°C 20% 5.5 mph SW8.9 kmh SW 12.0 mph19.3 kmh 29.81 in1009.5 mb 0.00 in0.0 mm 0.00 in0.0 mm 0.00 in0.0 mm
03:10 PM 96.9°F36.1°C 50.0°F10.0°C 20% 4.0 mph SSW6.4 kmh SSW 9.0 mph14.5 kmh 29.81 in1009.5 mb 0.00 in0.0 mm 0.00 in0.0 mm 0.00 in0.0 mm
03:20 PM 96.4°F35.8°C 48.0°F8.9°C 19% 5.8 mph S9.3 kmh S 14.0 mph22.5 kmh 29.81 in1009.5 mb 0.00 in0.0 mm 0.00 in0.0 mm 0.00 in0.0 mm
03:30 PM 96.4°F35.8°C 48.0°F8.9°C 19% 4.6 mph S7.4 kmh S 13.0 mph20.9 kmh 29.80 in1009.1 mb 0.00 in0.0 mm 0.00 in0.0 mm 0.00 in0.0 mm
03:40 PM 96.5°F35.8°C 47.0°F8.3°C 18% 4.6 mph SW7.4 kmh SW 14.0 mph22.5 kmh 29.80 in1009.1 mb 0.00 in0.0 mm 0.00 in0.0 mm 0.00 in0.0 mm
03:50 PM 95.9°F35.5°C 47.0°F8.3°C 19% 4.6 mph S7.4 kmh S 11.0 mph17.7 kmh 29.80 in1009.1 mb 0.00 in0.0 mm 0.00 in0.0 mm 0.00 in0.0 mm
04:00 PM 96.2°F35.7°C 46.0°F7.8°C 18% 5.8 mph SW9.3 kmh SW 15.0 mph24.1 kmh 29.80 in1009.1 mb 0.00 in0.0 mm 0.00 in0.0 mm 0.00 in0.0 mm
04:10 PM 95.8°F35.4°C 46.0°F7.8°C 18% 4.5 mph SW7.2 kmh SW 10.0 mph16.1 kmh 29.80 in1009.1 mb 0.00 in0.0 mm 0.00 in0.0 mm 0.00 in0.0 mm
04:20 PM 96.1°F35.6°C 46.0°F7.8°C 18% 5.1 mph SW8.2 kmh SW 13.0 mph20.9 kmh 29.80 in1009.1 mb 0.00 in0.0 mm 0.00 in0.0 mm 0.00 in0.0 mm
04:30 PM 96.2°F35.7°C 46.0°F7.8°C 18% 3.8 mph S6.1 kmh S 9.0 mph14.5 kmh 29.80 in1009.1 mb 0.00 in0.0 mm 0.00 in0.0 mm 0.00 in0.0 mm
04:40 PM 95.7°F35.4°C 46.0°F7.8°C 18% 5.8 mph SW9.3 kmh SW 12.0 mph19.3 kmh 29.80 in1009.1 mb 0.00 in0.0 mm 0.00 in0.0 mm 0.00 in0.0 mm
04:50 PM 95.5°F35.3°C 44.0°F6.7°C 17% 4.4 mph SW7.1 kmh SW 12.0 mph19.3 kmh 29.79 in1008.8 mb 0.00 in0.0 mm 0.00 in0.0 mm 0.00 in0.0 mm
05:00 PM 95.2°F35.1°C 45.0°F7.2°C 18% 5.1 mph WSW8.2 kmh WSW 14.0 mph22.5 kmh 29.79 in1008.8 mb 0.00 in0.0 mm 0.00 in0.0 mm 0.00 in0.0 mm
05:10 PM 95.0°F35.0°C 45.0°F7.2°C 18% 3.2 mph SW5.1 kmh SW 10.0 mph16.1 kmh 29.79 in1008.8 mb 0.00 in0.0 mm 0.00 in0.0 mm 0.00 in0.0 mm
05:20 PM 94.8°F34.9°C 47.0°F8.3°C 19% 5.2 mph SE8.4 kmh SE 10.0 mph16.1 kmh 29.79 in1008.8 mb 0.00 in0.0 mm 0.00 in0.0 mm 0.00 in0.0 mm
05:30 PM 94.4°F34.7°C 46.0°F7.8°C 19% 3.9 mph SW6.3 kmh SW 9.0 mph14.5 kmh 29.79 in1008.8 mb 0.00 in0.0 mm 0.00 in0.0 mm 0.00 in0.0 mm
05:40 PM 94.1°F34.5°C 46.0°F7.8°C 19% 4.6 mph S7.4 kmh S 10.0 mph16.1 kmh 29.79 in1008.8 mb 0.00 in0.0 mm 0.00 in0.0 mm 0.00 in0.0 mm
05:50 PM 93.7°F34.3°C 46.0°F7.8°C 19% 4.3 mph SSW6.9 kmh SSW 8.0 mph12.9 kmh 29.79 in1008.8 mb 0.00 in0.0 mm 0.00 in0.0 mm 0.00 in0.0 mm
06:00 PM 93.5°F34.2°C 47.0°F8.3°C 20% 3.6 mph SE5.8 kmh SE 9.0 mph14.5 kmh 29.78 in1008.5 mb 0.00 in0.0 mm 0.00 in0.0 mm 0.00 in0.0 mm
06:10 PM 93.1°F33.9°C 47.0°F8.3°C 20% 4.0 mph SW6.4 kmh SW 9.0 mph14.5 kmh 29.78 in1008.5 mb 0.00 in0.0 mm 0.00 in0.0 mm 0.00 in0.0 mm
06:20 PM 92.9°F33.8°C 46.0°F7.8°C 20% 2.9 mph SSW4.7 kmh SSW 7.0 mph11.3 kmh 29.78 in1008.5 mb 0.00 in0.0 mm 0.00 in0.0 mm 0.00 in0.0 mm
06:30 PM 92.5°F33.6°C 46.0°F7.8°C 20% 3.4 mph WSW5.5 kmh WSW 9.0 mph14.5 kmh 29.78 in1008.5 mb 0.00 in0.0 mm 0.00 in0.0 mm 0.00 in0.0 mm
06:40 PM 92.2°F33.4°C 47.0°F8.3°C 21% 2.3 mph SW3.7 kmh SW 7.0 mph11.3 kmh 29.78 in1008.5 mb 0.00 in0.0 mm 0.00 in0.0 mm 0.00 in0.0 mm
06:50 PM 91.6°F33.1°C 46.0°F7.8°C 21% 1.4 mph SW2.3 kmh SW 4.0 mph6.4 kmh 29.78 in1008.5 mb 0.00 in0.0 mm 0.00 in0.0 mm 0.00 in0.0 mm
07:00 PM 91.2°F32.9°C 46.0°F7.8°C 21% 1.6 mph SW2.6 kmh SW 4.0 mph6.4 kmh 29.78 in1008.5 mb 0.00 in0.0 mm 0.00 in0.0 mm 0.00 in0.0 mm
07:10 PM 90.7°F32.6°C 46.0°F7.8°C 21% 1.5 mph SSW2.4 kmh SSW 3.0 mph4.8 kmh 29.78 in1008.5 mb 0.00 in0.0 mm 0.00 in0.0 mm 0.00 in0.0 mm
07:20 PM 90.1°F32.3°C 46.0°F7.8°C 22% 0.2 mph SSW0.3 kmh SSW 1.0 mph1.6 kmh 29.78 in1008.5 mb 0.00 in0.0 mm 0.00 in0.0 mm 0.00 in0.0 mm
07:30 PM 89.1°F31.7°C 46.0°F7.8°C 22% 0.1 mph SE0.2 kmh SE 1.0 mph1.6 kmh 29.78 in1008.5 mb 0.00 in0.0 mm 0.00 in0.0 mm 0.00 in0.0 mm
07:40 PM 88.5°F31.4°C 46.0°F7.8°C 23% Calm Calm 1.0 mph1.6 kmh 29.79 in1008.8 mb 0.00 in0.0 mm 0.00 in0.0 mm 0.00 in0.0 mm
07:50 PM 87.9°F31.1°C 47.0°F8.3°C 24% Calm Calm -- 29.79 in1008.8 mb 0.00 in0.0 mm 0.00 in0.0 mm 0.00 in0.0 mm
08:00 PM 86.9°F30.5°C 47.0°F8.3°C 25% Calm Calm 1.0 mph1.6 kmh 29.79 in1008.8 mb 0.00 in0.0 mm 0.00 in0.0 mm 0.00 in0.0 mm
08:10 PM 85.9°F29.9°C 46.0°F7.8°C 25% Calm Calm -- 29.79 in1008.8 mb 0.00 in0.0 mm 0.00 in0.0 mm 0.00 in0.0 mm
08:20 PM 85.0°F29.4°C 47.0°F8.3°C 27% Calm Calm -- 29.79 in1008.8 mb 0.00 in0.0 mm 0.00 in0.0 mm 0.00 in0.0 mm
08:30 PM 85.2°F29.6°C 48.0°F8.9°C 27% Calm Calm -- 29.79 in1008.8 mb 0.00 in0.0 mm 0.00 in0.0 mm 0.00 in0.0 mm
08:40 PM 84.3°F29.1°C 47.0°F8.3°C 27% Calm Calm -- 29.79 in1008.8 mb 0.00 in0.0 mm 0.00 in0.0 mm 0.00 in0.0 mm
08:50 PM 83.5°F28.6°C 47.0°F8.3°C 28% Calm Calm -- 29.79 in1008.8 mb 0.00 in0.0 mm 0.00 in0.0 mm 0.00 in0.0 mm
09:00 PM 83.4°F28.6°C 46.0°F7.8°C 27% Calm Calm -- 29.79 in1008.8 mb 0.00 in0.0 mm 0.00 in0.0 mm 0.00 in0.0 mm
09:10 PM 83.8°F28.8°C 46.0°F7.8°C 27% Calm Calm -- 29.79 in1008.8 mb 0.00 in0.0 mm 0.00 in0.0 mm 0.00 in0.0 mm
09:20 PM 83.4°F28.6°C 46.0°F7.8°C 27% Calm Calm 1.0 mph1.6 kmh 29.79 in1008.8 mb 0.00 in0.0 mm 0.00 in0.0 mm 0.00 in0.0 mm
09:30 PM 83.2°F28.4°C 46.0°F7.8°C 27% Calm Calm -- 29.79 in1008.8 mb 0.00 in0.0 mm 0.00 in0.0 mm 0.00 in0.0 mm
09:40 PM 82.8°F28.2°C 46.0°F7.8°C 28% Calm Calm -- 29.79 in1008.8 mb 0.00 in0.0 mm 0.00 in0.0 mm 0.00 in0.0 mm
09:50 PM 83.6°F28.7°C 45.0°F7.2°C 26% Calm Calm 1.0 mph1.6 kmh 29.79 in1008.8 mb 0.00 in0.0 mm 0.00 in0.0 mm 0.00 in0.0 mm
10:00 PM 82.8°F28.2°C 46.0°F7.8°C 27% Calm Calm 1.0 mph1.6 kmh 29.79 in1008.8 mb 0.00 in0.0 mm 0.00 in0.0 mm 0.00 in0.0 mm
10:10 PM 82.4°F28.0°C 46.0°F7.8°C 28% Calm Calm -- 29.79 in1008.8 mb 0.00 in0.0 mm 0.00 in0.0 mm 0.00 in0.0 mm
10:20 PM 81.8°F27.7°C 47.0°F8.3°C 29% Calm Calm -- 29.79 in1008.8 mb 0.00 in0.0 mm 0.00 in0.0 mm 0.00 in0.0 mm
10:30 PM 81.2°F27.3°C 45.0°F7.2°C 28% Calm Calm 1.0 mph1.6 kmh 29.79 in1008.8 mb 0.00 in0.0 mm 0.00 in0.0 mm 0.00 in0.0 mm
10:40 PM 81.2°F27.3°C 46.0°F7.8°C 29% Calm Calm -- 29.79 in1008.8 mb 0.00 in0.0 mm 0.00 in0.0 mm 0.00 in0.0 mm
10:50 PM 80.9°F27.2°C 46.0°F7.8°C 29% Calm Calm 1.0 mph1.6 kmh 29.79 in1008.8 mb 0.00 in0.0 mm 0.00 in0.0 mm 0.00 in0.0 mm
11:00 PM 80.8°F27.1°C 45.0°F7.2°C 28% Calm Calm 1.0 mph1.6 kmh 29.79 in1008.8 mb 0.00 in0.0 mm 0.00 in0.0 mm 0.00 in0.0 mm
11:10 PM 81.4°F27.4°C 45.0°F7.2°C 28% 0.1 mph SE0.2 kmh SE 1.0 mph1.6 kmh 29.79 in1008.8 mb 0.00 in0.0 mm 0.00 in0.0 mm 0.00 in0.0 mm
11:20 PM 80.4°F26.9°C 45.0°F7.2°C 29% Calm Calm 1.0 mph1.6 kmh 29.79 in1008.8 mb 0.00 in0.0 mm 0.00 in0.0 mm 0.00 in0.0 mm
11:30 PM 80.6°F27.0°C 46.0°F7.8°C 29% Calm Calm 1.0 mph1.6 kmh 29.79 in1008.8 mb 0.00 in0.0 mm 0.00 in0.0 mm 0.00 in0.0 mm
11:40 PM 80.5°F26.9°C 45.0°F7.2°C 29% Calm Calm 1.0 mph1.6 kmh 29.78 in1008.5 mb 0.00 in0.0 mm 0.00 in0.0 mm 0.00 in0.0 mm
11:50 PM 81.2°F27.3°C 45.0°F7.2°C 28% 0.4 mph SE0.6 kmh SE 2.0 mph3.2 kmh 29.78 in1008.5 mb 0.00 in0.0 mm 0.00 in0.0 mm 0.00 in0.0 mm